Flag for Réunion (French)

Past Weather in Saint-Pierre, Réunion (French) — Yesterday and Last 2 Weeks

Currently: 77 °F. Passing clouds. (Weather station: Saint Airport-Pierre, Réunion (French)). See more current weather

Past Weather in Saint-Pierre — Graph

°F

Saint-Pierre Temperature Yesterday

Maximum temperature yesterday: 79 °F (at 10:00 am)
Minimum temperature yesterday: 70 °F (at 7:00 am)
Average temperature yesterday: 74 °F

High & Low Weather Summary for the Past Weeks

 TemperatureHumidityPressure
High86 °F (May 12, 2:30 pm)100% (May 21, 1:30 am)30.21 "Hg (May 21, 1:30 am)
Low64 °F (May 17, 1:30 am)39% (May 18, 8:30 am)29.95 "Hg (May 13, 1:30 pm)
Average75 °F65%30.06 "Hg
* Reported May 9 10:00 am — May 24 10:00 am, Saint-Pierre. Weather by CustomWeather, © 2024

Note: Actual official high and low records may vary slightly from our data, if they occured in-between our weather recording intervals... More about our weather records

Saint-Pierre Weather History for the Previous 24 Hours

Scroll right to see more
 ConditionsComfort  
Time TempWeatherWind HumidityBarometerVisibility
10:00 am
Fri, May 24
75 °FScattered clouds.13 mph74%30.09 "HgN/A
9:30 am72 °FBroken clouds.9 mph78%30.12 "HgN/A
9:00 am72 °FBroken clouds.8 mph88%30.12 "HgN/A
8:30 am70 °FLight rain. Fog.14 mph94%30.12 "Hg2 mi
8:00 am70 °FPartly sunny.9 mph73%30.09 "HgN/A
7:30 am70 °FPartly sunny.12 mph78%30.09 "HgN/A
7:00 am68 °FScattered clouds.9 mph69%30.09 "HgN/A
6:30 am68 °FPartly cloudy.8 mph78%30.09 "HgN/A
6:00 am70 °FMostly cloudy.13 mph78%30.07 "HgN/A
5:30 am68 °FPassing clouds.7 mph69%30.07 "HgN/A
5:00 am66 °FPassing clouds.7 mph68%30.07 "HgN/A
4:30 am66 °FPassing clouds.5 mph73%30.07 "HgN/A
4:00 am70 °FPassing clouds.6 mph73%30.07 "HgN/A
3:30 am72 °FPassing clouds.14 mph73%30.07 "HgN/A
3:00 am70 °FMild.12 mph78%30.07 "HgN/A
2:30 am70 °FClear.10 mph73%30.07 "Hg10 mi
2:00 am70 °FClear.6 mph73%30.09 "Hg10 mi
1:30 am70 °FPassing clouds.12 mph73%30.09 "HgN/A
1:00 am68 °FPassing clouds.3 mph69%30.09 "HgN/A
12:30 am70 °FPassing clouds.9 mph73%30.09 "HgN/A
12:00 am70 °FPartly cloudy.13 mph73%30.12 "HgN/A
11:30 pm
Thu, May 23
70 °FPassing clouds.7 mph73%30.12 "HgN/A
11:00 pm72 °FPassing clouds.12 mph69%30.12 "HgN/A
10:30 pm72 °FPassing clouds.10 mph69%30.12 "HgN/A
10:00 pm72 °FClear.15 mph65%30.12 "Hg10 mi
9:30 pm70 °FClear.13 mph69%30.12 "Hg10 mi
9:00 pm72 °FPassing clouds.16 mph65%30.12 "HgN/A
8:30 pm73 °FPassing clouds.20 mph53%30.12 "HgN/A
8:00 pm73 °FClear.16 mph61%30.09 "Hg10 mi
7:30 pm72 °FClear.16 mph69%30.09 "Hg10 mi
7:00 pm73 °FClear.20 mph61%30.09 "Hg10 mi
6:30 pm73 °FPassing clouds.18 mph65%30.09 "HgN/A
6:00 pm73 °FPassing clouds.21 mph61%30.09 "HgN/A
5:00 pm75 °FSunny.24 mph57%30.07 "Hg10 mi
4:30 pm77 °FSunny.26 mph54%30.07 "Hg10 mi
4:00 pm77 °FSunny.29 mph57%30.07 "Hg10 mi
3:00 pm79 °FSunny.31 mph51%30.07 "Hg10 mi
2:30 pm79 °FSunny.30 mph51%30.07 "Hg10 mi
2:00 pm79 °FSunny.29 mph54%30.07 "Hg10 mi
1:30 pm79 °FSunny.29 mph48%30.09 "Hg10 mi
1:00 pm79 °FSunny.29 mph51%30.09 "Hg10 mi
12:30 pm79 °FSunny.30 mph48%30.09 "Hg10 mi
12:00 pm79 °FClear.29 mph51%30.12 "HgN/A
11:30 am79 °FSunny.32 mph54%30.12 "Hg10 mi
11:00 am79 °FSunny.29 mph51%30.12 "Hg10 mi
Weather by CustomWeather, © 2024

See weather overview